KFBG

Simmons AAF Airport

Fort Bragg, North Carolina, USA
METAR KFBG 170304Z AUTO 06003KT 10SM SCT009 21/20 A3009 RMK AO2 SLP191 $
Observed Flight Rules
Oct-17 @ 03:04 UTC (26 minutes ago) Visual Flight Rules
Wind Visibility Clouds
60° at 3 knots 10 miles
  • Scattered at 900' AGL
Temperatures Readings
Current 21°C / 70°F
Dewpoint 20°C / 68°F
Humidity 94%
Altimeter 30.09" Hg
Pressure 1019.1 hPa
Elevation 74
METAR KFBG 170304Z AUTO 06003KT 10SM SCT009 21/20 A3009 RMK AO2 SLP191 $
Observed Flight Rules
Oct-17 @ 03:04 UTC
(26 minutes ago)
VFR
Wind Visibility
60° at 3 knots 10 miles
Clouds
  • Scattered at 900' AGL
Temperature Dewpoint
21°C / 70°F 20°C / 68°F
Humidity Altimeter Pressure
94% 30.09" Hg 1019.1 hPa